createdAt,value
2024-02-06T00:02:18.716Z,9.45
2024-02-06T00:04:45.528Z,6.82
2024-02-06T00:07:20.326Z,6.00
2024-02-06T00:09:55.109Z,8.43
2024-02-06T00:12:21.788Z,6.30
2024-02-06T00:14:48.296Z,5.93
2024-02-06T00:17:14.802Z,11.48
2024-02-06T00:19:44.018Z,9.95
2024-02-06T00:22:10.710Z,6.25
2024-02-06T00:24:37.522Z,7.00
2024-02-06T00:27:04.190Z,8.00
2024-02-06T00:29:30.777Z,9.90
2024-02-06T00:31:57.392Z,9.80
2024-02-06T00:34:24.144Z,8.80
2024-02-06T00:36:50.893Z,6.97
2024-02-06T00:39:17.541Z,6.78
2024-02-06T00:41:44.407Z,7.80
2024-02-06T00:44:11.159Z,9.93
2024-02-06T00:46:37.745Z,6.32
2024-02-06T00:49:04.650Z,8.77
2024-02-06T00:51:31.457Z,11.07
2024-02-06T00:53:57.952Z,11.35
2024-02-06T00:56:24.577Z,13.18
2024-02-06T00:58:51.065Z,12.38
2024-02-06T01:01:17.755Z,8.55
2024-02-06T01:03:44.959Z,6.40
2024-02-06T01:06:11.692Z,9.13
2024-02-06T01:08:38.282Z,7.60
2024-02-06T01:11:05.048Z,11.02
2024-02-06T01:13:31.684Z,10.85
2024-02-06T01:15:58.274Z,8.40
2024-02-06T01:18:24.889Z,8.55
2024-02-06T01:20:51.459Z,6.57
2024-02-06T01:23:18.057Z,13.65
2024-02-06T01:25:44.784Z,8.32
2024-02-06T01:28:13.498Z,10.98
2024-02-06T01:30:40.051Z,6.90
2024-02-06T01:33:06.913Z,8.65
2024-02-06T01:35:33.431Z,3.25
2024-02-06T01:37:59.920Z,9.75
2024-02-06T01:40:26.558Z,9.80
2024-02-06T01:42:53.756Z,7.55
2024-02-06T01:45:20.369Z,9.52
2024-02-06T01:47:47.232Z,8.52
2024-02-06T01:50:14.441Z,8.65
2024-02-06T01:52:41.250Z,7.78
2024-02-06T01:55:09.505Z,10.40
2024-02-06T01:57:37.598Z,6.47
2024-02-06T02:00:05.333Z,13.88
2024-02-06T02:02:32.358Z,8.20
2024-02-06T02:04:58.996Z,7.72
2024-02-06T02:10:17.938Z,9.57
2024-02-06T02:12:44.861Z,10.85
2024-02-06T02:15:13.443Z,9.40
2024-02-06T02:17:40.032Z,12.30
2024-02-06T02:20:07.386Z,8.77
2024-02-06T02:22:34.073Z,8.05
2024-02-06T02:25:00.720Z,8.13
2024-02-06T02:27:27.347Z,7.22
2024-02-06T02:29:54.603Z,9.02
2024-02-06T02:32:22.118Z,11.73
2024-02-06T02:34:49.339Z,7.72
2024-02-06T02:37:16.116Z,11.20
2024-02-06T02:39:42.923Z,11.38
2024-02-06T02:42:09.541Z,8.75
2024-02-06T02:44:36.107Z,10.02
2024-02-06T02:47:03.146Z,8.45
2024-02-06T02:49:32.016Z,9.13
2024-02-06T02:51:58.768Z,11.45
2024-02-06T02:54:28.562Z,6.32
2024-02-06T02:56:58.488Z,10.45
2024-02-06T02:59:25.053Z,6.90
2024-02-06T03:01:52.116Z,6.90
2024-02-06T03:04:18.800Z,7.20
2024-02-06T03:06:46.207Z,9.50
2024-02-06T03:09:17.367Z,5.07
2024-02-06T03:11:43.964Z,11.50
2024-02-06T03:14:10.665Z,8.93
2024-02-06T03:16:38.681Z,6.13
2024-02-06T03:19:05.754Z,10.70
2024-02-06T03:21:35.101Z,6.00
2024-02-06T03:24:01.621Z,8.15
2024-02-06T03:26:28.239Z,11.57
2024-02-06T03:28:54.763Z,7.95
2024-02-06T03:31:21.314Z,6.88
2024-02-06T03:33:48.102Z,9.48
2024-02-06T03:36:15.940Z,8.13
2024-02-06T03:41:11.905Z,11.55
2024-02-06T03:43:41.586Z,11.93
2024-02-06T03:46:11.706Z,8.32
2024-02-06T03:48:39.048Z,10.60
2024-02-06T03:51:07.493Z,6.50
2024-02-06T03:53:35.585Z,4.93
2024-02-06T03:56:02.106Z,7.85
2024-02-06T03:58:28.864Z,8.40
2024-02-06T04:00:56.419Z,5.47
2024-02-06T04:03:23.402Z,6.40
2024-02-06T04:05:50.299Z,12.27
2024-02-06T04:08:16.907Z,9.02
2024-02-06T04:10:43.629Z,7.10
2024-02-06T04:13:10.423Z,7.32
2024-02-06T04:15:37.441Z,6.38
2024-02-06T04:18:07.088Z,8.77
2024-02-06T04:20:33.747Z,4.82
2024-02-06T04:23:01.556Z,5.85
2024-02-06T04:27:55.566Z,8.40
2024-02-06T04:30:22.098Z,9.63
2024-02-06T04:32:52.929Z,5.10
2024-02-06T04:35:20.000Z,7.60
2024-02-06T04:37:50.024Z,6.03
2024-02-06T04:40:16.712Z,4.30
2024-02-06T04:42:43.401Z,5.80
2024-02-06T04:45:10.521Z,5.80
2024-02-06T04:47:37.253Z,5.57
2024-02-06T04:50:06.465Z,7.35
2024-02-06T04:52:36.468Z,6.30
2024-02-06T04:55:06.101Z,4.47
2024-02-06T04:57:32.684Z,6.30
2024-02-06T05:00:02.239Z,5.75
2024-02-06T05:02:28.778Z,6.07
2024-02-06T05:04:56.348Z,7.57
2024-02-06T05:07:23.395Z,4.55
2024-02-06T05:09:50.089Z,5.22
2024-02-06T05:12:19.373Z,7.22
2024-02-06T05:14:45.927Z,8.30
2024-02-06T05:17:12.547Z,6.00
2024-02-06T05:19:43.055Z,6.07
2024-02-06T05:22:13.195Z,3.63
2024-02-06T05:24:41.067Z,5.05
2024-02-06T05:29:39.668Z,6.07
2024-02-06T05:32:06.517Z,6.15
2024-02-06T05:34:35.398Z,3.17
2024-02-06T05:37:03.321Z,4.30
2024-02-06T05:41:56.662Z,5.03
2024-02-06T05:44:23.202Z,4.65
2024-02-06T05:46:51.152Z,4.13
2024-02-06T05:49:17.751Z,8.32
2024-02-06T05:51:44.517Z,5.85
2024-02-06T05:54:17.208Z,9.50
2024-02-06T05:56:45.381Z,5.07
2024-02-06T05:59:12.330Z,4.85
2024-02-06T06:01:38.964Z,4.72
2024-02-06T06:04:05.681Z,4.25
2024-02-06T06:06:32.779Z,5.40
2024-02-06T06:09:01.607Z,5.55
2024-02-06T06:11:29.684Z,4.38
2024-02-06T06:13:57.542Z,2.67
2024-02-06T06:16:24.332Z,4.07
2024-02-06T06:18:53.441Z,6.40
2024-02-06T06:21:21.119Z,5.28
2024-02-06T06:23:52.439Z,4.03
2024-02-06T06:26:20.136Z,5.60
2024-02-06T06:28:49.607Z,4.28
2024-02-06T06:31:22.310Z,4.28
2024-02-06T06:33:49.714Z,2.97
2024-02-06T06:36:18.748Z,4.00
2024-02-06T06:38:48.307Z,4.93
2024-02-06T06:41:47.380Z,4.97
2024-02-06T06:47:30.053Z,6.82
2024-02-06T06:50:09.590Z,7.18
2024-02-06T06:52:40.717Z,3.42
2024-02-06T06:55:08.052Z,4.78
2024-02-06T06:57:37.241Z,4.65
2024-02-06T07:00:06.430Z,3.58
2024-02-06T07:02:33.947Z,3.13
2024-02-06T07:05:13.010Z,3.33
2024-02-06T07:07:41.342Z,6.05
2024-02-06T07:10:34.442Z,3.80
2024-02-06T07:13:06.471Z,3.38
2024-02-06T07:15:39.642Z,3.97
2024-02-06T07:40:12.566Z,3.75
2024-02-06T08:01:58.005Z,3.65
2024-02-06T08:04:24.918Z,5.05
2024-02-06T08:06:51.581Z,3.10
2024-02-06T08:09:19.576Z,3.80
2024-02-06T08:11:46.774Z,3.28
2024-02-06T08:14:14.282Z,4.47
2024-02-06T08:16:41.747Z,3.78
2024-02-06T08:19:09.801Z,4.15
2024-02-06T08:21:36.858Z,3.85
2024-02-06T08:24:03.876Z,4.28
2024-02-06T08:26:33.529Z,4.95
2024-02-06T08:29:00.351Z,3.05
2024-02-06T08:31:27.125Z,4.68
2024-02-06T08:33:53.865Z,2.58
2024-02-06T08:36:20.762Z,3.38
2024-02-06T08:38:47.513Z,4.88
2024-02-06T08:41:14.221Z,3.85
2024-02-06T08:43:46.347Z,3.15
2024-02-06T08:46:19.565Z,3.55
2024-02-06T08:48:46.228Z,6.43
2024-02-06T08:51:13.402Z,3.15
2024-02-06T08:53:40.218Z,3.60
2024-02-06T08:56:07.008Z,2.47
2024-02-06T08:58:33.626Z,3.00
2024-02-06T09:01:00.360Z,4.57
2024-02-06T09:03:27.258Z,3.70
2024-02-06T09:05:53.946Z,4.88
2024-02-06T09:08:20.849Z,5.65
2024-02-06T09:10:47.930Z,4.28
2024-02-06T09:13:15.107Z,6.18
2024-02-06T09:15:41.777Z,2.17
2024-02-06T09:18:08.730Z,6.43
2024-02-06T09:20:36.019Z,3.20
2024-02-06T09:23:05.306Z,2.38
2024-02-06T09:25:32.021Z,2.30
2024-02-06T09:27:58.742Z,3.25
2024-02-06T09:30:25.622Z,5.45
2024-02-06T09:32:52.294Z,2.90
2024-02-06T09:35:19.008Z,2.88
2024-02-06T09:37:46.001Z,4.72
2024-02-06T09:40:14.243Z,4.57
2024-02-06T09:42:42.121Z,4.70
2024-02-06T09:47:35.327Z,3.25
2024-02-06T09:50:05.324Z,2.53
2024-02-06T09:52:32.581Z,3.03
2024-02-06T09:55:01.464Z,5.55
2024-02-06T09:57:28.558Z,4.72
2024-02-06T09:59:55.298Z,2.30
2024-02-06T10:02:24.640Z,2.90
2024-02-06T10:04:54.298Z,3.45
2024-02-06T10:07:21.260Z,3.75
2024-02-06T10:09:48.188Z,4.55
2024-02-06T10:12:15.857Z,3.10
2024-02-06T10:14:42.624Z,3.72
2024-02-06T10:17:10.690Z,3.58
2024-02-06T10:19:37.505Z,3.15
2024-02-06T10:22:04.498Z,4.28
2024-02-06T10:24:31.320Z,4.10
2024-02-06T10:27:01.578Z,3.13
2024-02-06T10:29:29.243Z,3.00
2024-02-06T10:32:02.402Z,3.13
2024-02-06T10:34:31.143Z,2.67
2024-02-06T10:37:01.198Z,1.83
2024-02-06T10:39:30.085Z,2.90
2024-02-06T10:42:36.169Z,4.13
2024-02-06T10:47:16.601Z,3.15
2024-02-06T10:49:43.300Z,2.50
2024-02-06T10:52:10.161Z,1.48
2024-02-06T10:54:37.462Z,1.48
2024-02-06T10:57:08.175Z,2.40
2024-02-06T10:59:59.427Z,1.98
2024-02-06T11:02:31.591Z,2.30
2024-02-06T11:05:24.773Z,1.73
2024-02-06T11:08:04.390Z,2.50
2024-02-06T11:10:39.953Z,2.75
2024-02-06T11:13:32.517Z,4.28
2024-02-06T11:16:04.357Z,3.17
2024-02-06T11:18:36.515Z,3.42
2024-02-06T11:21:05.970Z,3.50
2024-02-06T11:23:34.983Z,2.10
2024-02-06T11:26:03.161Z,1.60
2024-02-06T11:28:35.357Z,5.25
2024-02-06T11:31:05.078Z,2.35
2024-02-06T11:33:38.229Z,2.25
2024-02-06T11:39:08.003Z,2.47
2024-02-06T11:41:39.270Z,2.78
2024-02-06T11:44:18.794Z,1.80
2024-02-06T11:46:56.488Z,2.67
2024-02-06T11:49:26.090Z,1.33
2024-02-06T11:51:59.653Z,5.10
2024-02-06T11:54:28.693Z,4.55
2024-02-06T11:56:58.411Z,2.72
2024-02-06T11:59:50.912Z,2.05
2024-02-06T12:02:26.119Z,2.33
2024-02-06T12:08:22.471Z,2.50
2024-02-06T12:10:49.874Z,3.83
2024-02-06T12:13:16.702Z,3.70
2024-02-06T12:15:44.597Z,3.70
2024-02-06T12:18:15.545Z,2.10
2024-02-06T12:20:43.482Z,1.88
2024-02-06T12:23:13.030Z,1.77
2024-02-06T12:28:32.253Z,3.67
2024-02-06T12:31:02.947Z,3.42
2024-02-06T12:33:35.418Z,6.00
2024-02-06T12:36:03.926Z,1.98
2024-02-06T12:38:30.853Z,3.85
2024-02-06T12:41:02.259Z,2.13
2024-02-06T12:43:28.993Z,1.98
2024-02-06T12:45:55.940Z,2.10
2024-02-06T12:48:25.357Z,2.40
2024-02-06T12:50:52.274Z,2.10
2024-02-06T12:53:26.305Z,5.15
2024-02-06T12:55:53.196Z,2.65
2024-02-06T12:58:21.024Z,5.63
2024-02-06T13:03:27.152Z,4.20
2024-02-06T13:05:56.252Z,3.30
2024-02-06T13:08:23.680Z,3.50
2024-02-06T13:10:51.008Z,4.93
2024-02-06T13:13:22.968Z,1.73
2024-02-06T13:15:49.763Z,2.42
2024-02-06T13:18:18.822Z,1.73
2024-02-06T13:20:46.376Z,4.03
2024-02-06T13:23:55.988Z,3.58
2024-02-06T13:26:25.518Z,0.85
2024-02-06T13:29:04.667Z,3.63
2024-02-06T13:31:37.281Z,1.85
2024-02-06T13:36:50.014Z,2.78
2024-02-06T13:39:26.425Z,2.88
2024-02-06T13:41:58.091Z,3.78
2024-02-06T13:44:24.886Z,1.70
2024-02-06T13:46:52.162Z,2.05
2024-02-06T13:49:18.753Z,2.78
2024-02-06T13:51:45.412Z,2.35
2024-02-06T13:54:14.856Z,1.33
2024-02-06T13:56:43.085Z,2.70
2024-02-06T13:59:10.041Z,3.28
2024-02-06T14:01:38.018Z,1.05
2024-02-06T14:04:04.886Z,1.55
2024-02-06T14:06:31.468Z,2.65
2024-02-06T14:08:58.783Z,2.90
2024-02-06T14:11:27.748Z,4.07
2024-02-06T14:13:54.719Z,3.05
2024-02-06T14:16:22.359Z,2.28
2024-02-06T14:18:49.086Z,3.38
2024-02-06T14:21:15.631Z,1.85
2024-02-06T14:23:42.275Z,3.42
2024-02-06T14:26:09.162Z,2.55
2024-02-06T14:28:36.027Z,2.13
2024-02-06T14:31:02.675Z,1.85
2024-02-06T14:33:29.426Z,1.88
2024-02-06T14:35:56.095Z,2.92
2024-02-06T14:38:24.113Z,3.22
2024-02-06T14:40:52.126Z,3.30
2024-02-06T14:43:19.987Z,1.67
2024-02-06T14:45:48.178Z,2.30
2024-02-06T14:48:15.157Z,3.35
2024-02-06T14:50:41.852Z,2.08
2024-02-06T14:53:08.482Z,2.40
2024-02-06T14:55:35.067Z,1.73
2024-02-06T14:58:03.464Z,3.67
2024-02-06T15:00:30.010Z,2.35
2024-02-06T15:03:06.781Z,1.95
2024-02-06T15:05:35.778Z,4.22
2024-02-06T15:08:02.583Z,2.72
2024-02-06T15:10:29.180Z,2.97
2024-02-06T15:12:55.865Z,3.85
2024-02-06T15:15:22.838Z,2.78
2024-02-06T15:17:49.720Z,2.75
2024-02-06T15:20:16.968Z,2.60
2024-02-06T15:22:43.742Z,3.25
2024-02-06T15:25:10.423Z,4.82
2024-02-06T15:27:36.983Z,3.90
2024-02-06T15:30:03.809Z,3.78
2024-02-06T15:32:32.380Z,2.80
2024-02-06T15:34:59.237Z,3.10
2024-02-06T15:37:25.903Z,3.35
2024-02-06T15:39:52.723Z,2.95
2024-02-06T15:42:19.991Z,3.33
2024-02-06T15:44:48.056Z,2.78
2024-02-06T15:47:15.109Z,4.32
2024-02-06T15:49:41.914Z,4.68
2024-02-06T15:52:08.482Z,3.35
2024-02-06T15:54:36.417Z,3.15
2024-02-06T15:57:03.006Z,3.80
2024-02-06T15:59:29.579Z,5.05
2024-02-06T16:01:56.430Z,3.20
2024-02-06T16:04:23.180Z,4.72
2024-02-06T16:06:49.938Z,4.80
2024-02-06T16:09:18.333Z,2.67
2024-02-06T16:11:53.081Z,3.35
2024-02-06T16:14:22.904Z,5.13
2024-02-06T16:16:50.800Z,3.92
2024-02-06T16:19:26.986Z,3.53
2024-02-06T16:22:01.178Z,5.30
2024-02-06T16:24:29.327Z,3.13
2024-02-06T16:26:55.842Z,4.63
2024-02-06T16:29:23.588Z,5.30
2024-02-06T16:34:17.454Z,3.50
2024-02-06T16:36:44.069Z,4.05
2024-02-06T16:39:10.570Z,4.82
2024-02-06T16:41:37.175Z,4.43
2024-02-06T16:44:04.116Z,4.38
2024-02-06T16:46:30.929Z,4.15
2024-02-06T16:48:58.071Z,5.53
2024-02-06T16:51:24.716Z,4.35
2024-02-06T16:53:51.284Z,3.38
2024-02-06T16:56:20.382Z,4.70
2024-02-06T16:58:47.002Z,4.75
2024-02-06T17:01:14.865Z,6.03
2024-02-06T17:03:41.523Z,6.70
2024-02-06T17:06:08.256Z,8.73
2024-02-06T17:08:34.956Z,5.63
2024-02-06T17:11:02.776Z,4.50
2024-02-06T17:16:03.692Z,4.28
2024-02-06T17:18:30.826Z,5.15
2024-02-06T17:21:00.999Z,4.20
2024-02-06T17:23:28.326Z,5.93
2024-02-06T17:25:56.702Z,8.65
2024-02-06T17:28:23.479Z,6.63
2024-02-06T17:30:50.102Z,7.05
2024-02-06T17:33:16.720Z,4.35
2024-02-06T17:35:43.750Z,5.10
2024-02-06T17:38:10.599Z,5.32
2024-02-06T17:40:43.446Z,3.78
2024-02-06T17:43:10.348Z,5.50
2024-02-06T17:45:37.760Z,5.30
2024-02-06T17:48:06.720Z,5.47
2024-02-06T17:50:33.687Z,6.40
2024-02-06T17:53:01.160Z,4.68
2024-02-06T17:55:27.859Z,3.63
2024-02-06T17:57:54.499Z,6.72
2024-02-06T18:00:21.051Z,3.20
2024-02-06T18:02:54.444Z,5.82
2024-02-06T18:05:23.316Z,5.45
2024-02-06T18:07:51.411Z,3.50
2024-02-06T18:10:18.704Z,5.40
2024-02-06T18:12:45.253Z,6.35
2024-02-06T18:15:11.844Z,5.53
2024-02-06T18:17:39.161Z,4.60
2024-02-06T18:20:06.598Z,4.15
2024-02-06T18:22:33.960Z,7.45
2024-02-06T18:25:01.328Z,5.35
2024-02-06T18:27:28.151Z,5.40
2024-02-06T18:29:54.810Z,5.00
2024-02-06T18:32:21.311Z,5.47
2024-02-06T18:34:48.332Z,5.95
2024-02-06T18:37:15.049Z,5.28
2024-02-06T18:39:41.631Z,3.95
2024-02-06T18:42:08.328Z,7.63
2024-02-06T18:44:36.023Z,5.15
2024-02-06T18:47:02.839Z,6.60
2024-02-06T18:49:29.623Z,5.28
2024-02-06T18:51:56.245Z,3.67
2024-02-06T18:54:22.883Z,5.75
2024-02-06T18:56:49.476Z,3.80
2024-02-06T18:59:16.139Z,4.43
2024-02-06T19:01:42.750Z,5.97
2024-02-06T19:04:10.103Z,6.13
2024-02-06T19:06:37.072Z,4.43
2024-02-06T19:09:04.019Z,5.80
2024-02-06T19:11:32.032Z,3.38
2024-02-06T19:13:58.645Z,4.70
2024-02-06T19:16:25.207Z,2.90
2024-02-06T19:18:51.818Z,4.80
2024-02-06T19:21:20.336Z,3.35
2024-02-06T19:23:47.223Z,3.35
2024-02-06T19:26:13.778Z,3.85
2024-02-06T19:28:43.413Z,3.88
2024-02-06T19:31:09.974Z,3.33
2024-02-06T19:33:38.049Z,2.88
2024-02-06T19:36:05.320Z,3.60
2024-02-06T19:38:32.387Z,4.47
2024-02-06T19:40:59.047Z,4.95
2024-02-06T19:43:27.070Z,4.47
2024-02-06T19:45:57.852Z,3.53
2024-02-06T19:48:26.745Z,4.35
2024-02-06T19:50:53.829Z,4.95
2024-02-06T19:53:21.738Z,2.75
2024-02-06T19:55:48.510Z,4.13
2024-02-06T19:58:15.673Z,3.60
2024-02-06T20:00:42.326Z,8.00
2024-02-06T20:03:11.335Z,6.25
2024-02-06T20:05:38.096Z,4.38
2024-02-06T20:08:05.003Z,2.90
2024-02-06T20:10:31.729Z,2.35
2024-02-06T20:12:58.774Z,3.10
2024-02-06T20:15:27.608Z,4.43
2024-02-06T20:17:55.640Z,2.45
2024-02-06T20:20:22.409Z,4.00
2024-02-06T20:22:49.068Z,2.88
2024-02-06T20:25:15.856Z,3.80
2024-02-06T20:27:42.387Z,6.13
2024-02-06T20:30:11.758Z,6.57
2024-02-06T20:32:38.414Z,6.72
2024-02-06T20:35:06.006Z,3.65
2024-02-06T20:37:32.665Z,2.75
2024-02-06T20:39:59.921Z,4.72
2024-02-06T20:42:26.866Z,6.07
2024-02-06T20:44:53.639Z,4.10
2024-02-06T20:47:20.222Z,3.83
2024-02-06T20:49:47.074Z,2.38
2024-02-06T20:52:13.787Z,3.00
2024-02-06T20:54:40.661Z,3.17
2024-02-06T20:57:07.419Z,6.78
2024-02-06T20:59:36.969Z,7.18
2024-02-06T21:02:05.056Z,2.45
2024-02-06T21:04:32.730Z,2.85
2024-02-06T21:06:59.526Z,3.28
2024-02-06T21:09:27.391Z,3.70
2024-02-06T21:14:20.412Z,2.58
2024-02-06T21:16:47.185Z,3.13
2024-02-06T21:19:13.921Z,3.20
2024-02-06T21:21:40.764Z,2.85
2024-02-06T21:24:07.448Z,2.33
2024-02-06T21:26:34.582Z,2.88
2024-02-06T21:29:01.330Z,3.22
2024-02-06T21:31:28.182Z,2.33
2024-02-06T21:33:54.818Z,3.75
2024-02-06T21:36:21.477Z,2.70
2024-02-06T21:38:48.029Z,2.47
2024-02-06T21:41:14.709Z,4.63
2024-02-06T21:43:43.533Z,2.78
2024-02-06T21:46:10.930Z,2.92
2024-02-06T21:48:37.775Z,2.90
2024-02-06T21:51:04.666Z,2.53
2024-02-06T21:53:31.251Z,3.85
2024-02-06T21:56:08.168Z,2.38
2024-02-06T21:58:44.115Z,4.18
2024-02-06T22:01:10.811Z,2.20
2024-02-06T22:03:37.483Z,3.60
2024-02-06T22:06:04.442Z,1.83
2024-02-06T22:08:31.130Z,3.50
2024-02-06T22:10:58.253Z,2.20
2024-02-06T22:13:25.063Z,4.65
2024-02-06T22:15:51.643Z,2.30
2024-02-06T22:18:21.201Z,2.45
2024-02-06T22:20:47.796Z,6.60
2024-02-06T22:23:14.409Z,2.42
2024-02-06T22:25:41.225Z,2.47
2024-02-06T22:28:07.939Z,4.28
2024-02-06T22:30:34.612Z,2.15
2024-02-06T22:33:01.388Z,3.67
2024-02-06T22:35:28.221Z,3.03
2024-02-06T22:37:54.869Z,4.85
2024-02-06T22:40:21.887Z,4.90
2024-02-06T22:42:48.487Z,3.67
2024-02-06T22:45:16.751Z,2.83
2024-02-06T22:47:43.949Z,5.30
2024-02-06T22:50:11.140Z,4.97
2024-02-06T22:52:37.925Z,1.58
2024-02-06T22:55:06.035Z,3.53
2024-02-06T22:57:32.812Z,5.38
2024-02-06T22:59:59.334Z,4.75
2024-02-06T23:02:25.969Z,2.67
2024-02-06T23:04:53.140Z,1.65
2024-02-06T23:07:21.036Z,3.00
2024-02-06T23:09:47.680Z,3.28
2024-02-06T23:12:14.486Z,4.50
2024-02-06T23:14:40.988Z,2.22
2024-02-06T23:17:07.648Z,4.25
2024-02-06T23:19:34.714Z,5.28
2024-02-06T23:22:01.798Z,2.53
2024-02-06T23:24:28.571Z,3.25
2024-02-06T23:26:55.190Z,3.20
2024-02-06T23:29:21.738Z,2.33
2024-02-06T23:31:48.373Z,1.75
2024-02-06T23:34:14.940Z,2.67
2024-02-06T23:36:41.560Z,3.60
2024-02-06T23:39:15.719Z,2.63
2024-02-06T23:41:43.390Z,2.90
2024-02-06T23:44:10.622Z,2.85
2024-02-06T23:46:37.584Z,3.53
2024-02-06T23:49:06.882Z,2.95
2024-02-06T23:51:33.735Z,3.20
2024-02-06T23:56:28.029Z,2.45
2024-02-06T23:58:54.661Z,5.72
